メインページ
METAR-TAF:

METAR-TAF

空港 :

Lebanon, ニューハンプシャー州, アメリカ合衆国

緯度: 43-37-38N, 経度: 072-18-21W, 海抜: 182m

現時点の気象観測

当レポートは34分前の23:53(UTC)に作成
無風
気温 18°C
湿度 77%
気圧 1024 hPa
視程: 16.1km
高度6500ftの曇り

METAR: KLEB 242353Z 00000KT 10SM OVC065 18/14 A3025 RMK AO2 SLP240 T01830139 10233 20183 53013

時間: 20:27 (00:27 UTC)

予報

当レポートは1時間7分前の23:20(UTC)に作成
予報は25日の 00時(UTC)から 25日の 24時(UTC)まで有効
変向風 3kt
視程: 10km
高度6000ftの千切れ雲あり
25日の 0800時(UTC)から
変向風 2kt
視程: 0.4km
高度200ftの曇り
25日の 1200時(UTC)から
東/南東の風 4kt
視程: 10km
高度3500ftの千切れ雲あり

TAF: KLEB 242320Z 2500/2524 VRB03KT P6SM BKN060 FM250800 VRB02KT 1/4SM FG OVC002 FM251200 11004KT P6SM BKN035

4,000以上の空港の気象観測と天気予報(METAR報とTAF報)

利用可能な観測所は地図上に黄色い丸と赤い丸で示す。

丸の上にカーソルを重ねると観測所名を参照できる。

次にクリックすると気象観測と天気予報を参照できる。

マップの切り替え:黒色「×」印の緑ボタンをクリックして拡大、「-」印の緑ボタンをクリックして縮小、緑色の三角印をクリックして隣りの地図に切り替え


METAR-TAF: